sensor_id;sensor_type;location;lat;lon;timestamp;temperature;humidity
19586;DHT22;9939;49.246;9.106;2023-03-07T00:01:57;3.30;99.90
19586;DHT22;9939;49.246;9.106;2023-03-07T00:04:24;3.20;99.90
19586;DHT22;9939;49.246;9.106;2023-03-07T00:06:51;3.20;99.90
19586;DHT22;9939;49.246;9.106;2023-03-07T00:09:20;3.20;99.90
19586;DHT22;9939;49.246;9.106;2023-03-07T00:11:48;3.20;99.90
19586;DHT22;9939;49.246;9.106;2023-03-07T00:14:15;3.20;99.90
19586;DHT22;9939;49.246;9.106;2023-03-07T00:16:42;3.20;99.90
19586;DHT22;9939;49.246;9.106;2023-03-07T00:19:09;3.10;99.90
19586;DHT22;9939;49.246;9.106;2023-03-07T00:21:36;3.10;99.90
19586;DHT22;9939;49.246;9.106;2023-03-07T00:24:03;3.20;99.90
19586;DHT22;9939;49.246;9.106;2023-03-07T00:26:30;3.20;99.90
19586;DHT22;9939;49.246;9.106;2023-03-07T00:28:58;3.20;99.90
19586;DHT22;9939;49.246;9.106;2023-03-07T00:31:24;3.10;99.90
19586;DHT22;9939;49.246;9.106;2023-03-07T00:33:51;3.20;99.90
19586;DHT22;9939;49.246;9.106;2023-03-07T00:36:19;3.30;99.90
19586;DHT22;9939;49.246;9.106;2023-03-07T00:38:47;3.30;99.90
19586;DHT22;9939;49.246;9.106;2023-03-07T00:41:15;3.30;99.90
19586;DHT22;9939;49.246;9.106;2023-03-07T00:43:42;3.30;99.90
19586;DHT22;9939;49.246;9.106;2023-03-07T00:46:09;3.20;99.90
19586;DHT22;9939;49.246;9.106;2023-03-07T00:48:37;3.20;99.90
19586;DHT22;9939;49.246;9.106;2023-03-07T00:51:05;3.20;99.90
19586;DHT22;9939;49.246;9.106;2023-03-07T00:53:32;3.20;99.90
19586;DHT22;9939;49.246;9.106;2023-03-07T00:56:00;3.00;99.90
19586;DHT22;9939;49.246;9.106;2023-03-07T00:58:29;2.90;99.90
19586;DHT22;9939;49.246;9.106;2023-03-07T01:00:57;2.90;99.90
19586;DHT22;9939;49.246;9.106;2023-03-07T01:03:25;2.80;99.90
19586;DHT22;9939;49.246;9.106;2023-03-07T01:05:52;2.80;99.90
19586;DHT22;9939;49.246;9.106;2023-03-07T01:08:21;2.80;99.90
19586;DHT22;9939;49.246;9.106;2023-03-07T01:10:48;2.80;99.90
19586;DHT22;9939;49.246;9.106;2023-03-07T01:13:16;2.80;99.90
19586;DHT22;9939;49.246;9.106;2023-03-07T01:15:44;2.80;99.90
19586;DHT22;9939;49.246;9.106;2023-03-07T01:18:11;2.70;99.90
19586;DHT22;9939;49.246;9.106;2023-03-07T01:20:38;2.70;99.90
19586;DHT22;9939;49.246;9.106;2023-03-07T01:23:06;2.70;99.90
19586;DHT22;9939;49.246;9.106;2023-03-07T01:25:37;2.70;99.90
19586;DHT22;9939;49.246;9.106;2023-03-07T01:28:04;2.70;99.90
19586;DHT22;9939;49.246;9.106;2023-03-07T01:30:31;2.60;99.90
19586;DHT22;9939;49.246;9.106;2023-03-07T01:32:59;2.50;99.90
19586;DHT22;9939;49.246;9.106;2023-03-07T01:35:27;2.40;99.90
19586;DHT22;9939;49.246;9.106;2023-03-07T01:37:56;2.40;99.90
19586;DHT22;9939;49.246;9.106;2023-03-07T01:40:23;2.40;99.90
19586;DHT22;9939;49.246;9.106;2023-03-07T01:42:51;2.30;99.90
19586;DHT22;9939;49.246;9.106;2023-03-07T01:48:00;2.20;99.90
19586;DHT22;9939;49.246;9.106;2023-03-07T01:50:28;2.20;99.90
19586;DHT22;9939;49.246;9.106;2023-03-07T01:52:56;2.10;99.90
19586;DHT22;9939;49.246;9.106;2023-03-07T01:55:28;2.00;99.90
19586;DHT22;9939;49.246;9.106;2023-03-07T01:58:05;2.00;99.90
19586;DHT22;9939;49.246;9.106;2023-03-07T02:00:32;2.00;99.90
19586;DHT22;9939;49.246;9.106;2023-03-07T02:03:19;2.00;99.90
19586;DHT22;9939;49.246;9.106;2023-03-07T02:05:52;2.10;99.90
19586;DHT22;9939;49.246;9.106;2023-03-07T02:08:20;2.00;99.90
19586;DHT22;9939;49.246;9.106;2023-03-07T02:10:47;2.00;99.90
19586;DHT22;9939;49.246;9.106;2023-03-07T02:13:15;2.00;99.90
19586;DHT22;9939;49.246;9.106;2023-03-07T02:15:42;1.90;99.90
19586;DHT22;9939;49.246;9.106;2023-03-07T02:18:10;1.90;99.90
19586;DHT22;9939;49.246;9.106;2023-03-07T02:26:10;2.10;99.90
19586;DHT22;9939;49.246;9.106;2023-03-07T02:28:40;2.10;99.90
19586;DHT22;9939;49.246;9.106;2023-03-07T02:31:09;2.10;99.90
19586;DHT22;9939;49.246;9.106;2023-03-07T02:33:38;2.20;99.90
19586;DHT22;9939;49.246;9.106;2023-03-07T02:36:09;2.20;99.90
19586;DHT22;9939;49.246;9.106;2023-03-07T02:38:43;2.20;99.90
19586;DHT22;9939;49.246;9.106;2023-03-07T02:41:11;2.10;99.90
19586;DHT22;9939;49.246;9.106;2023-03-07T02:43:38;2.10;99.90
19586;DHT22;9939;49.246;9.106;2023-03-07T02:46:06;2.10;99.90
19586;DHT22;9939;49.246;9.106;2023-03-07T02:48:33;2.10;99.90
19586;DHT22;9939;49.246;9.106;2023-03-07T02:51:00;2.00;99.90
19586;DHT22;9939;49.246;9.106;2023-03-07T02:53:27;2.00;99.90
19586;DHT22;9939;49.246;9.106;2023-03-07T02:55:54;2.00;99.90
19586;DHT22;9939;49.246;9.106;2023-03-07T02:58:21;2.00;99.90
19586;DHT22;9939;49.246;9.106;2023-03-07T03:00:48;2.00;99.90
19586;DHT22;9939;49.246;9.106;2023-03-07T03:03:15;2.00;99.90
19586;DHT22;9939;49.246;9.106;2023-03-07T03:05:42;1.90;99.90
19586;DHT22;9939;49.246;9.106;2023-03-07T03:08:09;1.90;99.90
19586;DHT22;9939;49.246;9.106;2023-03-07T03:10:36;1.90;99.90
19586;DHT22;9939;49.246;9.106;2023-03-07T03:13:03;1.80;99.90
19586;DHT22;9939;49.246;9.106;2023-03-07T03:15:30;1.80;99.90
19586;DHT22;9939;49.246;9.106;2023-03-07T03:17:57;1.80;99.90
19586;DHT22;9939;49.246;9.106;2023-03-07T03:20:23;1.90;99.90
19586;DHT22;9939;49.246;9.106;2023-03-07T03:22:51;1.90;99.90
19586;DHT22;9939;49.246;9.106;2023-03-07T03:25:19;1.90;99.90
19586;DHT22;9939;49.246;9.106;2023-03-07T03:27:49;1.90;99.90
19586;DHT22;9939;49.246;9.106;2023-03-07T03:30:16;1.90;99.90
19586;DHT22;9939;49.246;9.106;2023-03-07T03:32:43;1.90;99.90
19586;DHT22;9939;49.246;9.106;2023-03-07T03:35:13;1.90;99.90
19586;DHT22;9939;49.246;9.106;2023-03-07T03:37:41;2.00;99.90
19586;DHT22;9939;49.246;9.106;2023-03-07T03:40:08;1.90;99.90
19586;DHT22;9939;49.246;9.106;2023-03-07T03:42:41;1.90;99.90
19586;DHT22;9939;49.246;9.106;2023-03-07T03:45:09;1.90;99.90
19586;DHT22;9939;49.246;9.106;2023-03-07T03:47:37;1.90;99.90
19586;DHT22;9939;49.246;9.106;2023-03-07T03:50:05;1.90;99.90
19586;DHT22;9939;49.246;9.106;2023-03-07T03:52:33;1.90;99.90
19586;DHT22;9939;49.246;9.106;2023-03-07T03:55:00;1.90;99.90
19586;DHT22;9939;49.246;9.106;2023-03-07T03:57:27;1.90;99.90
19586;DHT22;9939;49.246;9.106;2023-03-07T03:59:54;2.00;99.90
19586;DHT22;9939;49.246;9.106;2023-03-07T04:02:21;2.00;99.90
19586;DHT22;9939;49.246;9.106;2023-03-07T04:04:49;2.00;99.90
19586;DHT22;9939;49.246;9.106;2023-03-07T04:07:16;2.10;99.90
19586;DHT22;9939;49.246;9.106;2023-03-07T04:09:44;2.10;99.90
19586;DHT22;9939;49.246;9.106;2023-03-07T04:12:11;2.10;99.90
19586;DHT22;9939;49.246;9.106;2023-03-07T04:14:37;2.10;99.90
19586;DHT22;9939;49.246;9.106;2023-03-07T04:17:04;2.10;99.90
19586;DHT22;9939;49.246;9.106;2023-03-07T04:19:31;2.20;99.90
19586;DHT22;9939;49.246;9.106;2023-03-07T04:21:58;2.20;99.90
19586;DHT22;9939;49.246;9.106;2023-03-07T04:24:25;2.30;99.90
19586;DHT22;9939;49.246;9.106;2023-03-07T04:26:52;2.30;99.90
19586;DHT22;9939;49.246;9.106;2023-03-07T04:29:19;2.30;99.90
19586;DHT22;9939;49.246;9.106;2023-03-07T04:32:09;2.30;99.90
19586;DHT22;9939;49.246;9.106;2023-03-07T04:34:36;2.40;99.90
19586;DHT22;9939;49.246;9.106;2023-03-07T04:37:03;2.50;99.90
19586;DHT22;9939;49.246;9.106;2023-03-07T04:39:30;2.40;99.90
19586;DHT22;9939;49.246;9.106;2023-03-07T04:41:57;2.50;99.90
19586;DHT22;9939;49.246;9.106;2023-03-07T04:44:26;2.50;99.90
19586;DHT22;9939;49.246;9.106;2023-03-07T04:46:53;2.50;99.90
19586;DHT22;9939;49.246;9.106;2023-03-07T04:49:20;2.50;99.90
19586;DHT22;9939;49.246;9.106;2023-03-07T04:51:47;2.50;99.90
19586;DHT22;9939;49.246;9.106;2023-03-07T04:54:15;2.50;99.90
19586;DHT22;9939;49.246;9.106;2023-03-07T04:56:44;2.50;99.90
19586;DHT22;9939;49.246;9.106;2023-03-07T04:59:11;2.60;99.90
19586;DHT22;9939;49.246;9.106;2023-03-07T05:01:39;2.60;99.90
19586;DHT22;9939;49.246;9.106;2023-03-07T05:04:06;2.60;99.90
19586;DHT22;9939;49.246;9.106;2023-03-07T05:06:34;2.70;99.90
19586;DHT22;9939;49.246;9.106;2023-03-07T05:09:01;2.70;99.90
19586;DHT22;9939;49.246;9.106;2023-03-07T05:11:28;2.80;99.90
19586;DHT22;9939;49.246;9.106;2023-03-07T05:13:55;2.80;99.90
19586;DHT22;9939;49.246;9.106;2023-03-07T05:16:22;2.80;99.90
19586;DHT22;9939;49.246;9.106;2023-03-07T05:18:49;2.80;99.90
19586;DHT22;9939;49.246;9.106;2023-03-07T05:21:17;2.90;99.90
19586;DHT22;9939;49.246;9.106;2023-03-07T05:23:43;2.90;99.90
19586;DHT22;9939;49.246;9.106;2023-03-07T05:26:11;2.90;99.90
19586;DHT22;9939;49.246;9.106;2023-03-07T05:28:38;3.00;99.90
19586;DHT22;9939;49.246;9.106;2023-03-07T05:31:05;3.00;99.90
19586;DHT22;9939;49.246;9.106;2023-03-07T05:33:32;3.00;99.90
19586;DHT22;9939;49.246;9.106;2023-03-07T05:36:00;3.10;99.90
19586;DHT22;9939;49.246;9.106;2023-03-07T05:38:28;3.10;99.90
19586;DHT22;9939;49.246;9.106;2023-03-07T05:40:55;3.20;99.90
19586;DHT22;9939;49.246;9.106;2023-03-07T05:43:22;3.20;99.90
19586;DHT22;9939;49.246;9.106;2023-03-07T05:45:50;3.20;99.90
19586;DHT22;9939;49.246;9.106;2023-03-07T05:48:17;3.20;99.90
19586;DHT22;9939;49.246;9.106;2023-03-07T05:50:44;3.20;99.90
19586;DHT22;9939;49.246;9.106;2023-03-07T05:53:12;3.30;99.90
19586;DHT22;9939;49.246;9.106;2023-03-07T05:55:38;3.30;99.90
19586;DHT22;9939;49.246;9.106;2023-03-07T05:58:06;3.30;99.90
19586;DHT22;9939;49.246;9.106;2023-03-07T06:00:33;3.30;99.90
19586;DHT22;9939;49.246;9.106;2023-03-07T06:03:00;3.30;99.90
19586;DHT22;9939;49.246;9.106;2023-03-07T06:05:28;3.30;99.90
19586;DHT22;9939;49.246;9.106;2023-03-07T06:07:55;3.30;99.90
19586;DHT22;9939;49.246;9.106;2023-03-07T06:10:22;3.30;99.90
19586;DHT22;9939;49.246;9.106;2023-03-07T06:12:49;3.40;99.90
19586;DHT22;9939;49.246;9.106;2023-03-07T06:15:16;3.40;99.90
19586;DHT22;9939;49.246;9.106;2023-03-07T06:17:45;3.40;99.90
19586;DHT22;9939;49.246;9.106;2023-03-07T06:20:12;3.40;99.90
19586;DHT22;9939;49.246;9.106;2023-03-07T06:22:38;3.50;99.90
19586;DHT22;9939;49.246;9.106;2023-03-07T06:25:06;3.50;99.90
19586;DHT22;9939;49.246;9.106;2023-03-07T06:27:34;3.50;99.90
19586;DHT22;9939;49.246;9.106;2023-03-07T06:30:03;3.50;99.90
19586;DHT22;9939;49.246;9.106;2023-03-07T06:32:31;3.50;99.90
19586;DHT22;9939;49.246;9.106;2023-03-07T06:34:59;3.50;99.90
19586;DHT22;9939;49.246;9.106;2023-03-07T06:37:26;3.50;99.90
19586;DHT22;9939;49.246;9.106;2023-03-07T06:39:56;3.60;99.90
19586;DHT22;9939;49.246;9.106;2023-03-07T06:42:23;3.60;99.90
19586;DHT22;9939;49.246;9.106;2023-03-07T06:44:51;3.60;99.90
19586;DHT22;9939;49.246;9.106;2023-03-07T06:47:18;3.70;99.90
19586;DHT22;9939;49.246;9.106;2023-03-07T06:49:45;3.70;99.90
19586;DHT22;9939;49.246;9.106;2023-03-07T06:52:12;3.70;99.90
19586;DHT22;9939;49.246;9.106;2023-03-07T06:54:39;3.70;99.90
19586;DHT22;9939;49.246;9.106;2023-03-07T06:57:06;3.80;99.90
19586;DHT22;9939;49.246;9.106;2023-03-07T06:59:33;3.90;99.90
19586;DHT22;9939;49.246;9.106;2023-03-07T07:02:00;3.90;99.90
19586;DHT22;9939;49.246;9.106;2023-03-07T07:04:29;3.90;99.90
19586;DHT22;9939;49.246;9.106;2023-03-07T07:06:56;4.00;99.90
19586;DHT22;9939;49.246;9.106;2023-03-07T07:09:25;4.00;99.90
19586;DHT22;9939;49.246;9.106;2023-03-07T07:11:52;4.00;99.90
19586;DHT22;9939;49.246;9.106;2023-03-07T07:14:19;4.10;99.90
19586;DHT22;9939;49.246;9.106;2023-03-07T07:16:47;4.10;99.90
19586;DHT22;9939;49.246;9.106;2023-03-07T07:19:14;4.20;99.90
19586;DHT22;9939;49.246;9.106;2023-03-07T07:21:41;4.20;99.90
19586;DHT22;9939;49.246;9.106;2023-03-07T07:24:10;4.30;99.90
19586;DHT22;9939;49.246;9.106;2023-03-07T07:26:38;4.40;99.90
19586;DHT22;9939;49.246;9.106;2023-03-07T07:29:04;4.50;99.90
19586;DHT22;9939;49.246;9.106;2023-03-07T07:31:31;4.50;99.90
19586;DHT22;9939;49.246;9.106;2023-03-07T07:33:58;4.50;99.90
19586;DHT22;9939;49.246;9.106;2023-03-07T07:36:27;4.60;99.90
19586;DHT22;9939;49.246;9.106;2023-03-07T07:38:56;4.70;99.90
19586;DHT22;9939;49.246;9.106;2023-03-07T07:41:23;4.70;99.90
19586;DHT22;9939;49.246;9.106;2023-03-07T07:43:53;4.70;99.90
19586;DHT22;9939;49.246;9.106;2023-03-07T07:46:27;4.70;99.90
19586;DHT22;9939;49.246;9.106;2023-03-07T07:48:54;4.70;99.90
19586;DHT22;9939;49.246;9.106;2023-03-07T07:51:21;4.70;99.90
19586;DHT22;9939;49.246;9.106;2023-03-07T07:53:48;4.80;99.90
19586;DHT22;9939;49.246;9.106;2023-03-07T07:56:15;4.80;99.90
19586;DHT22;9939;49.246;9.106;2023-03-07T07:58:42;4.90;99.90
19586;DHT22;9939;49.246;9.106;2023-03-07T08:03:39;4.80;99.90
19586;DHT22;9939;49.246;9.106;2023-03-07T08:06:06;4.80;99.90
19586;DHT22;9939;49.246;9.106;2023-03-07T08:08:33;4.80;99.90
19586;DHT22;9939;49.246;9.106;2023-03-07T08:11:00;4.90;99.90
19586;DHT22;9939;49.246;9.106;2023-03-07T08:13:27;5.10;99.90
19586;DHT22;9939;49.246;9.106;2023-03-07T08:15:54;5.20;99.90
19586;DHT22;9939;49.246;9.106;2023-03-07T08:18:20;5.30;99.90
19586;DHT22;9939;49.246;9.106;2023-03-07T08:20:47;5.40;99.90
19586;DHT22;9939;49.246;9.106;2023-03-07T08:23:14;5.40;99.90
19586;DHT22;9939;49.246;9.106;2023-03-07T08:25:41;5.40;99.90
19586;DHT22;9939;49.246;9.106;2023-03-07T08:28:08;5.40;99.90
19586;DHT22;9939;49.246;9.106;2023-03-07T08:30:35;5.50;99.90
19586;DHT22;9939;49.246;9.106;2023-03-07T08:33:02;5.60;99.90
19586;DHT22;9939;49.246;9.106;2023-03-07T08:35:29;5.60;99.90
19586;DHT22;9939;49.246;9.106;2023-03-07T08:37:57;5.50;99.90
19586;DHT22;9939;49.246;9.106;2023-03-07T08:40:26;5.60;99.90
19586;DHT22;9939;49.246;9.106;2023-03-07T08:42:53;5.70;99.90
19586;DHT22;9939;49.246;9.106;2023-03-07T08:45:22;5.60;99.90
19586;DHT22;9939;49.246;9.106;2023-03-07T08:47:52;5.60;99.90
19586;DHT22;9939;49.246;9.106;2023-03-07T08:50:20;5.90;99.90
19586;DHT22;9939;49.246;9.106;2023-03-07T08:52:47;6.00;99.90
19586;DHT22;9939;49.246;9.106;2023-03-07T08:55:14;6.00;99.90
19586;DHT22;9939;49.246;9.106;2023-03-07T08:57:42;6.00;99.90
19586;DHT22;9939;49.246;9.106;2023-03-07T09:00:11;6.10;99.90
19586;DHT22;9939;49.246;9.106;2023-03-07T09:02:38;5.90;99.90
19586;DHT22;9939;49.246;9.106;2023-03-07T09:05:05;5.90;99.90
19586;DHT22;9939;49.246;9.106;2023-03-07T09:07:32;6.00;99.90
19586;DHT22;9939;49.246;9.106;2023-03-07T09:09:58;6.20;99.90
19586;DHT22;9939;49.246;9.106;2023-03-07T09:12:25;6.20;99.90
19586;DHT22;9939;49.246;9.106;2023-03-07T09:14:52;6.20;99.90
19586;DHT22;9939;49.246;9.106;2023-03-07T09:17:20;6.30;99.90
19586;DHT22;9939;49.246;9.106;2023-03-07T09:19:47;6.30;99.90
19586;DHT22;9939;49.246;9.106;2023-03-07T09:22:16;6.40;99.90
19586;DHT22;9939;49.246;9.106;2023-03-07T09:24:43;6.30;99.90
19586;DHT22;9939;49.246;9.106;2023-03-07T09:27:09;6.20;99.90
19586;DHT22;9939;49.246;9.106;2023-03-07T09:29:37;6.40;99.90
19586;DHT22;9939;49.246;9.106;2023-03-07T09:32:03;6.60;99.90
19586;DHT22;9939;49.246;9.106;2023-03-07T09:34:31;6.80;99.90
19586;DHT22;9939;49.246;9.106;2023-03-07T09:36:57;7.20;99.90
19586;DHT22;9939;49.246;9.106;2023-03-07T09:39:24;7.20;99.90
19586;DHT22;9939;49.246;9.106;2023-03-07T09:41:58;7.00;99.90
19586;DHT22;9939;49.246;9.106;2023-03-07T09:50:20;6.80;99.90
19586;DHT22;9939;49.246;9.106;2023-03-07T09:52:48;6.60;99.90
19586;DHT22;9939;49.246;9.106;2023-03-07T09:55:18;6.60;99.90
19586;DHT22;9939;49.246;9.106;2023-03-07T09:57:50;6.70;99.90
19586;DHT22;9939;49.246;9.106;2023-03-07T10:08:02;6.40;99.90
19586;DHT22;9939;49.246;9.106;2023-03-07T10:15:49;6.40;99.90
19586;DHT22;9939;49.246;9.106;2023-03-07T10:18:35;6.40;99.90
19586;DHT22;9939;49.246;9.106;2023-03-07T10:23:36;6.40;99.90
19586;DHT22;9939;49.246;9.106;2023-03-07T10:26:10;6.60;99.90
19586;DHT22;9939;49.246;9.106;2023-03-07T10:28:39;6.60;99.90
19586;DHT22;9939;49.246;9.106;2023-03-07T10:33:42;6.80;99.90
19586;DHT22;9939;49.246;9.106;2023-03-07T10:36:20;6.70;99.90
19586;DHT22;9939;49.246;9.106;2023-03-07T10:41:15;7.00;99.90
19586;DHT22;9939;49.246;9.106;2023-03-07T10:43:43;7.10;99.90
19586;DHT22;9939;49.246;9.106;2023-03-07T10:46:11;6.70;99.90
19586;DHT22;9939;49.246;9.106;2023-03-07T10:48:52;6.90;99.90
19586;DHT22;9939;49.246;9.106;2023-03-07T10:54:05;6.90;99.90
19586;DHT22;9939;49.246;9.106;2023-03-07T10:56:36;7.20;99.90
19586;DHT22;9939;49.246;9.106;2023-03-07T10:59:04;7.30;99.90
19586;DHT22;9939;49.246;9.106;2023-03-07T11:01:31;7.50;99.90
19586;DHT22;9939;49.246;9.106;2023-03-07T11:04:06;7.60;99.90
19586;DHT22;9939;49.246;9.106;2023-03-07T11:06:40;7.70;99.90
19586;DHT22;9939;49.246;9.106;2023-03-07T11:11:45;8.00;99.90
19586;DHT22;9939;49.246;9.106;2023-03-07T11:14:12;8.10;99.90
19586;DHT22;9939;49.246;9.106;2023-03-07T11:16:49;7.90;99.90
19586;DHT22;9939;49.246;9.106;2023-03-07T11:19:27;7.70;99.90
19586;DHT22;9939;49.246;9.106;2023-03-07T11:21:55;7.80;99.90
19586;DHT22;9939;49.246;9.106;2023-03-07T11:24:35;8.00;99.90
19586;DHT22;9939;49.246;9.106;2023-03-07T11:27:02;7.80;99.90
19586;DHT22;9939;49.246;9.106;2023-03-07T11:29:29;7.70;99.90
19586;DHT22;9939;49.246;9.106;2023-03-07T11:42:23;7.80;99.90
19586;DHT22;9939;49.246;9.106;2023-03-07T11:44:53;7.80;99.90
19586;DHT22;9939;49.246;9.106;2023-03-07T11:55:30;7.20;99.90
19586;DHT22;9939;49.246;9.106;2023-03-07T12:13:01;7.50;99.90
19586;DHT22;9939;49.246;9.106;2023-03-07T12:15:44;7.60;99.90
19586;DHT22;9939;49.246;9.106;2023-03-07T12:23:30;8.40;99.90
19586;DHT22;9939;49.246;9.106;2023-03-07T12:26:00;8.30;99.90
19586;DHT22;9939;49.246;9.106;2023-03-07T12:28:34;8.40;99.90
19586;DHT22;9939;49.246;9.106;2023-03-07T12:31:16;8.70;99.90
19586;DHT22;9939;49.246;9.106;2023-03-07T12:33:47;9.20;99.90
19586;DHT22;9939;49.246;9.106;2023-03-07T12:40:03;9.10;99.90
19586;DHT22;9939;49.246;9.106;2023-03-07T12:49:59;8.90;99.90
19586;DHT22;9939;49.246;9.106;2023-03-07T12:52:41;8.60;99.90
19586;DHT22;9939;49.246;9.106;2023-03-07T12:58:05;9.00;99.90
19586;DHT22;9939;49.246;9.106;2023-03-07T13:00:35;9.20;99.90
19586;DHT22;9939;49.246;9.106;2023-03-07T13:03:05;9.70;99.90
19586;DHT22;9939;49.246;9.106;2023-03-07T13:05:33;9.50;99.90
19586;DHT22;9939;49.246;9.106;2023-03-07T13:08:01;9.60;99.90
19586;DHT22;9939;49.246;9.106;2023-03-07T13:10:29;9.60;99.90
19586;DHT22;9939;49.246;9.106;2023-03-07T13:12:56;9.20;99.90
19586;DHT22;9939;49.246;9.106;2023-03-07T13:17:54;8.40;99.90
19586;DHT22;9939;49.246;9.106;2023-03-07T13:22:56;8.50;99.90
19586;DHT22;9939;49.246;9.106;2023-03-07T13:27:53;8.40;99.90
19586;DHT22;9939;49.246;9.106;2023-03-07T13:30:24;7.80;99.90
19586;DHT22;9939;49.246;9.106;2023-03-07T13:46:00;7.10;99.90
19586;DHT22;9939;49.246;9.106;2023-03-07T13:53:23;7.10;99.90
19586;DHT22;9939;49.246;9.106;2023-03-07T14:01:34;7.10;99.90
19586;DHT22;9939;49.246;9.106;2023-03-07T14:04:07;7.10;99.90
19586;DHT22;9939;49.246;9.106;2023-03-07T14:06:38;7.10;99.90
19586;DHT22;9939;49.246;9.106;2023-03-07T14:09:06;6.90;99.90
19586;DHT22;9939;49.246;9.106;2023-03-07T14:11:48;6.80;99.90
19586;DHT22;9939;49.246;9.106;2023-03-07T14:17:00;6.70;99.90
19586;DHT22;9939;49.246;9.106;2023-03-07T14:27:12;6.50;99.90
19586;DHT22;9939;49.246;9.106;2023-03-07T14:29:50;6.50;99.90
19586;DHT22;9939;49.246;9.106;2023-03-07T14:34:50;6.50;99.90
19586;DHT22;9939;49.246;9.106;2023-03-07T14:37:23;6.50;99.90
19586;DHT22;9939;49.246;9.106;2023-03-07T14:52:40;6.80;99.90
19586;DHT22;9939;49.246;9.106;2023-03-07T14:55:13;6.90;99.90
19586;DHT22;9939;49.246;9.106;2023-03-07T14:57:42;6.90;99.90
19586;DHT22;9939;49.246;9.106;2023-03-07T15:00:13;7.00;99.90
19586;DHT22;9939;49.246;9.106;2023-03-07T15:02:44;7.10;99.90
19586;DHT22;9939;49.246;9.106;2023-03-07T15:05:16;7.00;99.90
19586;DHT22;9939;49.246;9.106;2023-03-07T15:07:43;7.00;99.90
19586;DHT22;9939;49.246;9.106;2023-03-07T15:10:13;6.80;99.90
19586;DHT22;9939;49.246;9.106;2023-03-07T15:12:41;6.80;99.90
19586;DHT22;9939;49.246;9.106;2023-03-07T15:15:13;6.70;99.90
19586;DHT22;9939;49.246;9.106;2023-03-07T15:17:43;6.60;99.90
19586;DHT22;9939;49.246;9.106;2023-03-07T15:20:20;6.60;99.90
19586;DHT22;9939;49.246;9.106;2023-03-07T15:22:47;6.60;99.90
19586;DHT22;9939;49.246;9.106;2023-03-07T15:25:19;6.60;99.90
19586;DHT22;9939;49.246;9.106;2023-03-07T15:30:53;6.60;99.90
19586;DHT22;9939;49.246;9.106;2023-03-07T15:33:23;6.50;99.90
19586;DHT22;9939;49.246;9.106;2023-03-07T15:36:07;6.40;99.90
19586;DHT22;9939;49.246;9.106;2023-03-07T15:38:35;6.30;99.90
19586;DHT22;9939;49.246;9.106;2023-03-07T15:41:22;6.30;99.90
19586;DHT22;9939;49.246;9.106;2023-03-07T15:44:01;6.30;99.90
19586;DHT22;9939;49.246;9.106;2023-03-07T15:46:29;6.20;99.90
19586;DHT22;9939;49.246;9.106;2023-03-07T15:48:56;6.20;99.90
19586;DHT22;9939;49.246;9.106;2023-03-07T15:51:24;6.20;99.90
19586;DHT22;9939;49.246;9.106;2023-03-07T15:53:54;6.10;99.90
19586;DHT22;9939;49.246;9.106;2023-03-07T15:56:22;6.20;99.90
19586;DHT22;9939;49.246;9.106;2023-03-07T15:58:57;6.20;99.90
19586;DHT22;9939;49.246;9.106;2023-03-07T16:01:25;6.10;99.90
19586;DHT22;9939;49.246;9.106;2023-03-07T16:03:56;6.10;99.90
19586;DHT22;9939;49.246;9.106;2023-03-07T16:08:57;6.00;99.90
19586;DHT22;9939;49.246;9.106;2023-03-07T16:11:24;6.00;99.90
19586;DHT22;9939;49.246;9.106;2023-03-07T16:13:51;6.00;99.90
19586;DHT22;9939;49.246;9.106;2023-03-07T16:16:20;6.10;99.90
19586;DHT22;9939;49.246;9.106;2023-03-07T16:18:47;6.00;99.90
19586;DHT22;9939;49.246;9.106;2023-03-07T16:21:14;6.00;99.90
19586;DHT22;9939;49.246;9.106;2023-03-07T16:23:41;6.00;99.90
19586;DHT22;9939;49.246;9.106;2023-03-07T16:26:16;6.00;99.90
19586;DHT22;9939;49.246;9.106;2023-03-07T16:28:44;6.00;99.90
19586;DHT22;9939;49.246;9.106;2023-03-07T16:31:11;6.00;99.90
19586;DHT22;9939;49.246;9.106;2023-03-07T16:33:39;5.90;99.90
19586;DHT22;9939;49.246;9.106;2023-03-07T16:36:07;5.90;99.90
19586;DHT22;9939;49.246;9.106;2023-03-07T16:38:34;5.90;99.90
19586;DHT22;9939;49.246;9.106;2023-03-07T16:41:01;6.00;99.90
19586;DHT22;9939;49.246;9.106;2023-03-07T16:43:33;5.90;99.90
19586;DHT22;9939;49.246;9.106;2023-03-07T16:46:01;6.00;99.90
19586;DHT22;9939;49.246;9.106;2023-03-07T16:48:28;6.00;99.90
19586;DHT22;9939;49.246;9.106;2023-03-07T16:50:55;5.90;99.90
19586;DHT22;9939;49.246;9.106;2023-03-07T16:53:22;5.80;99.90
19586;DHT22;9939;49.246;9.106;2023-03-07T16:55:48;5.80;99.90
19586;DHT22;9939;49.246;9.106;2023-03-07T16:58:21;5.80;99.90
19586;DHT22;9939;49.246;9.106;2023-03-07T17:00:48;5.80;99.90
19586;DHT22;9939;49.246;9.106;2023-03-07T17:03:16;5.80;99.90
19586;DHT22;9939;49.246;9.106;2023-03-07T17:05:43;5.80;99.90
19586;DHT22;9939;49.246;9.106;2023-03-07T17:08:09;5.80;99.90
19586;DHT22;9939;49.246;9.106;2023-03-07T17:10:37;5.80;99.90
19586;DHT22;9939;49.246;9.106;2023-03-07T17:13:06;5.80;99.90
19586;DHT22;9939;49.246;9.106;2023-03-07T17:15:34;5.80;99.90
19586;DHT22;9939;49.246;9.106;2023-03-07T17:18:02;5.70;99.90
19586;DHT22;9939;49.246;9.106;2023-03-07T17:20:29;5.70;99.90
19586;DHT22;9939;49.246;9.106;2023-03-07T17:22:56;5.60;99.90
19586;DHT22;9939;49.246;9.106;2023-03-07T17:25:24;5.70;99.90
19586;DHT22;9939;49.246;9.106;2023-03-07T17:27:52;5.70;99.90
19586;DHT22;9939;49.246;9.106;2023-03-07T17:30:20;5.70;99.90
19586;DHT22;9939;49.246;9.106;2023-03-07T17:32:48;5.60;99.90
19586;DHT22;9939;49.246;9.106;2023-03-07T17:35:15;5.70;99.90
19586;DHT22;9939;49.246;9.106;2023-03-07T17:37:42;5.60;99.90
19586;DHT22;9939;49.246;9.106;2023-03-07T17:40:11;5.60;99.90
19586;DHT22;9939;49.246;9.106;2023-03-07T17:42:39;5.70;99.90
19586;DHT22;9939;49.246;9.106;2023-03-07T17:45:07;5.60;99.90
19586;DHT22;9939;49.246;9.106;2023-03-07T17:47:34;5.60;99.90
19586;DHT22;9939;49.246;9.106;2023-03-07T17:50:01;5.60;99.90
19586;DHT22;9939;49.246;9.106;2023-03-07T17:52:31;5.50;99.90
19586;DHT22;9939;49.246;9.106;2023-03-07T17:54:58;5.60;99.90
19586;DHT22;9939;49.246;9.106;2023-03-07T17:57:25;5.60;99.90
19586;DHT22;9939;49.246;9.106;2023-03-07T17:59:53;5.60;99.90
19586;DHT22;9939;49.246;9.106;2023-03-07T18:02:19;5.60;99.90
19586;DHT22;9939;49.246;9.106;2023-03-07T18:04:46;5.60;99.90
19586;DHT22;9939;49.246;9.106;2023-03-07T18:07:13;5.60;99.90
19586;DHT22;9939;49.246;9.106;2023-03-07T18:09:43;5.60;99.90
19586;DHT22;9939;49.246;9.106;2023-03-07T18:12:10;5.60;99.90
19586;DHT22;9939;49.246;9.106;2023-03-07T18:14:37;5.60;99.90
19586;DHT22;9939;49.246;9.106;2023-03-07T18:17:04;5.60;99.90
19586;DHT22;9939;49.246;9.106;2023-03-07T18:19:31;5.60;99.90
19586;DHT22;9939;49.246;9.106;2023-03-07T18:21:58;5.60;99.90
19586;DHT22;9939;49.246;9.106;2023-03-07T18:24:26;5.50;99.90
19586;DHT22;9939;49.246;9.106;2023-03-07T18:26:54;5.50;99.90
19586;DHT22;9939;49.246;9.106;2023-03-07T18:29:21;5.50;99.90
19586;DHT22;9939;49.246;9.106;2023-03-07T18:31:48;5.60;99.90
19586;DHT22;9939;49.246;9.106;2023-03-07T18:34:15;5.60;99.90
19586;DHT22;9939;49.246;9.106;2023-03-07T18:36:42;5.70;99.90
19586;DHT22;9939;49.246;9.106;2023-03-07T18:39:09;5.60;99.90
19586;DHT22;9939;49.246;9.106;2023-03-07T18:41:36;5.70;99.90
19586;DHT22;9939;49.246;9.106;2023-03-07T18:44:03;5.60;99.90
19586;DHT22;9939;49.246;9.106;2023-03-07T18:46:30;5.70;99.90
19586;DHT22;9939;49.246;9.106;2023-03-07T18:48:59;5.60;99.90